sensor_id;sensor_type;location;lat;lon;timestamp;P1;P2;P0
49778;PMS5003;36217;60.232;24.776;2023-03-14T00:00:14;1;1;
49778;PMS5003;36217;60.232;24.776;2023-03-14T00:02:42;0;0;
49778;PMS5003;36217;60.232;24.776;2023-03-14T00:05:09;2;1;
49778;PMS5003;36217;60.232;24.776;2023-03-14T00:07:37;2;1;
49778;PMS5003;36217;60.232;24.776;2023-03-14T00:10:08;1;1;
49778;PMS5003;36217;60.232;24.776;2023-03-14T00:12:37;1;0;
49778;PMS5003;36217;60.232;24.776;2023-03-14T00:15:05;1;1;
49778;PMS5003;36217;60.232;24.776;2023-03-14T00:17:34;0;0;
49778;PMS5003;36217;60.232;24.776;2023-03-14T00:20:01;0;0;
49778;PMS5003;36217;60.232;24.776;2023-03-14T00:22:31;1;1;
49778;PMS5003;36217;60.232;24.776;2023-03-14T00:24:58;0;0;
49778;PMS5003;36217;60.232;24.776;2023-03-14T00:27:26;0;0;
49778;PMS5003;36217;60.232;24.776;2023-03-14T00:29:53;0;0;
49778;PMS5003;36217;60.232;24.776;2023-03-14T00:32:20;0;0;
49778;PMS5003;36217;60.232;24.776;2023-03-14T00:34:47;0;0;
49778;PMS5003;36217;60.232;24.776;2023-03-14T00:37:14;1;1;
49778;PMS5003;36217;60.232;24.776;2023-03-14T00:39:42;1;1;
49778;PMS5003;36217;60.232;24.776;2023-03-14T00:42:09;3;1;
49778;PMS5003;36217;60.232;24.776;2023-03-14T00:44:36;0;0;
49778;PMS5003;36217;60.232;24.776;2023-03-14T00:47:03;0;0;
49778;PMS5003;36217;60.232;24.776;2023-03-14T00:49:31;3;1;
49778;PMS5003;36217;60.232;24.776;2023-03-14T00:51:58;1;0;
49778;PMS5003;36217;60.232;24.776;2023-03-14T00:54:25;1;1;
49778;PMS5003;36217;60.232;24.776;2023-03-14T00:56:52;3;1;
49778;PMS5003;36217;60.232;24.776;2023-03-14T00:59:19;0;0;
49778;PMS5003;36217;60.232;24.776;2023-03-14T01:01:47;1;1;
49778;PMS5003;36217;60.232;24.776;2023-03-14T01:04:14;1;1;
49778;PMS5003;36217;60.232;24.776;2023-03-14T01:06:51;2;2;
49778;PMS5003;36217;60.232;24.776;2023-03-14T01:09:18;3;2;
49778;PMS5003;36217;60.232;24.776;2023-03-14T01:11:45;1;1;
49778;PMS5003;36217;60.232;24.776;2023-03-14T01:14:12;2;2;
49778;PMS5003;36217;60.232;24.776;2023-03-14T01:16:39;2;2;
49778;PMS5003;36217;60.232;24.776;2023-03-14T01:19:07;1;1;
49778;PMS5003;36217;60.232;24.776;2023-03-14T01:21:35;1;1;
49778;PMS5003;36217;60.232;24.776;2023-03-14T01:24:03;2;2;
49778;PMS5003;36217;60.232;24.776;2023-03-14T01:26:33;1;1;
49778;PMS5003;36217;60.232;24.776;2023-03-14T01:29:01;1;1;
49778;PMS5003;36217;60.232;24.776;2023-03-14T01:31:28;2;2;
49778;PMS5003;36217;60.232;24.776;2023-03-14T01:33:55;1;1;
49778;PMS5003;36217;60.232;24.776;2023-03-14T01:36:22;1;1;
49778;PMS5003;36217;60.232;24.776;2023-03-14T01:38:50;1;1;
49778;PMS5003;36217;60.232;24.776;2023-03-14T01:41:19;3;2;
49778;PMS5003;36217;60.232;24.776;2023-03-14T01:43:48;1;1;
49778;PMS5003;36217;60.232;24.776;2023-03-14T01:46:20;1;1;
49778;PMS5003;36217;60.232;24.776;2023-03-14T01:48:52;2;1;
49778;PMS5003;36217;60.232;24.776;2023-03-14T01:51:25;1;1;
49778;PMS5003;36217;60.232;24.776;2023-03-14T01:53:59;1;1;
49778;PMS5003;36217;60.232;24.776;2023-03-14T01:56:31;1;1;
49778;PMS5003;36217;60.232;24.776;2023-03-14T01:58:58;1;1;
49778;PMS5003;36217;60.232;24.776;2023-03-14T02:01:29;0;0;
49778;PMS5003;36217;60.232;24.776;2023-03-14T02:03:57;3;2;
49778;PMS5003;36217;60.232;24.776;2023-03-14T02:06:29;1;1;
49778;PMS5003;36217;60.232;24.776;2023-03-14T02:09:02;2;2;
49778;PMS5003;36217;60.232;24.776;2023-03-14T02:11:29;1;1;
49778;PMS5003;36217;60.232;24.776;2023-03-14T02:13:57;2;2;
49778;PMS5003;36217;60.232;24.776;2023-03-14T02:16:25;1;1;
49778;PMS5003;36217;60.232;24.776;2023-03-14T02:18:53;1;1;
49778;PMS5003;36217;60.232;24.776;2023-03-14T02:21:21;2;2;
49778;PMS5003;36217;60.232;24.776;2023-03-14T02:23:58;1;1;
49778;PMS5003;36217;60.232;24.776;2023-03-14T02:26:35;2;2;
49778;PMS5003;36217;60.232;24.776;2023-03-14T02:29:06;1;1;
49778;PMS5003;36217;60.232;24.776;2023-03-14T02:31:33;2;2;
49778;PMS5003;36217;60.232;24.776;2023-03-14T02:34:00;2;2;
49778;PMS5003;36217;60.232;24.776;2023-03-14T02:36:28;4;2;
49778;PMS5003;36217;60.232;24.776;2023-03-14T02:39:00;2;2;
49778;PMS5003;36217;60.232;24.776;2023-03-14T02:41:34;6;3;
49778;PMS5003;36217;60.232;24.776;2023-03-14T02:44:01;2;2;
49778;PMS5003;36217;60.232;24.776;2023-03-14T02:46:28;3;2;
49778;PMS5003;36217;60.232;24.776;2023-03-14T02:48:56;3;3;
49778;PMS5003;36217;60.232;24.776;2023-03-14T02:51:27;2;2;
49778;PMS5003;36217;60.232;24.776;2023-03-14T02:53:55;4;4;
49778;PMS5003;36217;60.232;24.776;2023-03-14T02:56:22;2;2;
49778;PMS5003;36217;60.232;24.776;2023-03-14T02:58:49;3;3;
49778;PMS5003;36217;60.232;24.776;2023-03-14T03:01:17;4;4;
49778;PMS5003;36217;60.232;24.776;2023-03-14T03:03:44;4;3;
49778;PMS5003;36217;60.232;24.776;2023-03-14T03:06:11;3;3;
49778;PMS5003;36217;60.232;24.776;2023-03-14T03:08:38;4;3;
49778;PMS5003;36217;60.232;24.776;2023-03-14T03:11:06;2;2;
49778;PMS5003;36217;60.232;24.776;2023-03-14T03:13:33;4;3;
49778;PMS5003;36217;60.232;24.776;2023-03-14T03:16:00;4;4;
49778;PMS5003;36217;60.232;24.776;2023-03-14T03:18:27;3;3;
49778;PMS5003;36217;60.232;24.776;2023-03-14T03:20:54;3;3;
49778;PMS5003;36217;60.232;24.776;2023-03-14T03:23:21;3;3;
49778;PMS5003;36217;60.232;24.776;2023-03-14T03:25:49;3;3;
49778;PMS5003;36217;60.232;24.776;2023-03-14T03:28:17;3;3;
49778;PMS5003;36217;60.232;24.776;2023-03-14T03:30:44;3;2;
49778;PMS5003;36217;60.232;24.776;2023-03-14T03:33:12;2;2;
49778;PMS5003;36217;60.232;24.776;2023-03-14T03:35:42;3;2;
49778;PMS5003;36217;60.232;24.776;2023-03-14T03:38:10;2;2;
49778;PMS5003;36217;60.232;24.776;2023-03-14T03:40:37;3;3;
49778;PMS5003;36217;60.232;24.776;2023-03-14T03:43:04;3;3;
49778;PMS5003;36217;60.232;24.776;2023-03-14T03:45:32;4;2;
49778;PMS5003;36217;60.232;24.776;2023-03-14T03:47:59;2;2;
49778;PMS5003;36217;60.232;24.776;2023-03-14T03:50:26;2;2;
49778;PMS5003;36217;60.232;24.776;2023-03-14T03:52:53;2;2;
49778;PMS5003;36217;60.232;24.776;2023-03-14T03:55:20;4;4;
49778;PMS5003;36217;60.232;24.776;2023-03-14T03:57:47;3;3;
49778;PMS5003;36217;60.232;24.776;2023-03-14T04:00:15;3;3;
49778;PMS5003;36217;60.232;24.776;2023-03-14T04:02:42;2;2;
49778;PMS5003;36217;60.232;24.776;2023-03-14T04:05:09;1;1;
49778;PMS5003;36217;60.232;24.776;2023-03-14T04:07:36;2;2;
49778;PMS5003;36217;60.232;24.776;2023-03-14T04:10:04;3;2;
49778;PMS5003;36217;60.232;24.776;2023-03-14T04:12:31;2;2;
49778;PMS5003;36217;60.232;24.776;2023-03-14T04:14:59;4;3;
49778;PMS5003;36217;60.232;24.776;2023-03-14T04:17:26;2;2;
49778;PMS5003;36217;60.232;24.776;2023-03-14T04:19:53;3;3;
49778;PMS5003;36217;60.232;24.776;2023-03-14T04:22:20;2;2;
49778;PMS5003;36217;60.232;24.776;2023-03-14T04:24:47;2;2;
49778;PMS5003;36217;60.232;24.776;2023-03-14T04:27:15;2;2;
49778;PMS5003;36217;60.232;24.776;2023-03-14T04:29:42;2;2;
49778;PMS5003;36217;60.232;24.776;2023-03-14T04:32:09;2;1;
49778;PMS5003;36217;60.232;24.776;2023-03-14T04:34:36;4;4;
49778;PMS5003;36217;60.232;24.776;2023-03-14T04:37:03;2;2;
49778;PMS5003;36217;60.232;24.776;2023-03-14T04:39:30;2;2;
49778;PMS5003;36217;60.232;24.776;2023-03-14T04:41:57;1;1;
49778;PMS5003;36217;60.232;24.776;2023-03-14T04:44:25;2;2;
49778;PMS5003;36217;60.232;24.776;2023-03-14T04:46:52;2;2;
49778;PMS5003;36217;60.232;24.776;2023-03-14T04:49:19;3;3;
49778;PMS5003;36217;60.232;24.776;2023-03-14T04:51:46;1;1;
49778;PMS5003;36217;60.232;24.776;2023-03-14T04:54:13;6;2;
49778;PMS5003;36217;60.232;24.776;2023-03-14T04:56:40;3;1;
49778;PMS5003;36217;60.232;24.776;2023-03-14T04:59:08;2;2;
49778;PMS5003;36217;60.232;24.776;2023-03-14T05:01:35;4;3;
49778;PMS5003;36217;60.232;24.776;2023-03-14T05:04:02;3;3;
49778;PMS5003;36217;60.232;24.776;2023-03-14T05:06:29;2;2;
49778;PMS5003;36217;60.232;24.776;2023-03-14T05:08:56;3;2;
49778;PMS5003;36217;60.232;24.776;2023-03-14T05:11:24;4;3;
49778;PMS5003;36217;60.232;24.776;2023-03-14T05:13:51;2;2;
49778;PMS5003;36217;60.232;24.776;2023-03-14T05:16:18;3;3;
49778;PMS5003;36217;60.232;24.776;2023-03-14T05:18:45;3;3;
49778;PMS5003;36217;60.232;24.776;2023-03-14T05:21:12;2;2;
49778;PMS5003;36217;60.232;24.776;2023-03-14T05:23:39;3;3;
49778;PMS5003;36217;60.232;24.776;2023-03-14T05:26:07;3;3;
49778;PMS5003;36217;60.232;24.776;2023-03-14T05:28:34;3;3;
49778;PMS5003;36217;60.232;24.776;2023-03-14T05:31:01;3;2;
49778;PMS5003;36217;60.232;24.776;2023-03-14T05:33:32;6;6;
49778;PMS5003;36217;60.232;24.776;2023-03-14T05:36:00;4;4;
49778;PMS5003;36217;60.232;24.776;2023-03-14T05:38:27;9;4;
49778;PMS5003;36217;60.232;24.776;2023-03-14T05:40:54;6;4;
49778;PMS5003;36217;60.232;24.776;2023-03-14T05:43:21;3;3;
49778;PMS5003;36217;60.232;24.776;2023-03-14T05:45:48;6;6;
49778;PMS5003;36217;60.232;24.776;2023-03-14T05:48:16;4;4;
49778;PMS5003;36217;60.232;24.776;2023-03-14T05:50:43;4;4;
49778;PMS5003;36217;60.232;24.776;2023-03-14T05:53:10;8;4;
49778;PMS5003;36217;60.232;24.776;2023-03-14T05:55:38;3;3;
49778;PMS5003;36217;60.232;24.776;2023-03-14T05:58:05;6;4;
49778;PMS5003;36217;60.232;24.776;2023-03-14T06:00:32;7;4;
49778;PMS5003;36217;60.232;24.776;2023-03-14T06:03:00;4;4;
49778;PMS5003;36217;60.232;24.776;2023-03-14T06:05:27;4;4;
49778;PMS5003;36217;60.232;24.776;2023-03-14T06:07:54;3;3;
49778;PMS5003;36217;60.232;24.776;2023-03-14T06:10:21;6;3;
49778;PMS5003;36217;60.232;24.776;2023-03-14T06:12:48;8;6;
49778;PMS5003;36217;60.232;24.776;2023-03-14T06:15:15;6;4;
49778;PMS5003;36217;60.232;24.776;2023-03-14T06:17:42;8;7;
49778;PMS5003;36217;60.232;24.776;2023-03-14T06:20:09;4;4;
49778;PMS5003;36217;60.232;24.776;2023-03-14T06:22:37;6;4;
49778;PMS5003;36217;60.232;24.776;2023-03-14T06:25:09;7;4;
49778;PMS5003;36217;60.232;24.776;2023-03-14T06:27:36;7;6;
49778;PMS5003;36217;60.232;24.776;2023-03-14T06:30:04;7;6;
49778;PMS5003;36217;60.232;24.776;2023-03-14T06:32:31;6;4;
49778;PMS5003;36217;60.232;24.776;2023-03-14T06:34:59;7;6;
49778;PMS5003;36217;60.232;24.776;2023-03-14T06:37:26;7;7;
49778;PMS5003;36217;60.232;24.776;2023-03-14T06:39:53;8;6;
49778;PMS5003;36217;60.232;24.776;2023-03-14T06:42:20;8;4;
49778;PMS5003;36217;60.232;24.776;2023-03-14T06:44:47;4;4;
49778;PMS5003;36217;60.232;24.776;2023-03-14T06:47:15;8;4;
49778;PMS5003;36217;60.232;24.776;2023-03-14T06:49:42;8;6;
49778;PMS5003;36217;60.232;24.776;2023-03-14T06:52:09;6;6;
49778;PMS5003;36217;60.232;24.776;2023-03-14T06:54:36;9;4;
49778;PMS5003;36217;60.232;24.776;2023-03-14T06:57:03;7;4;
49778;PMS5003;36217;60.232;24.776;2023-03-14T06:59:30;7;4;
49778;PMS5003;36217;60.232;24.776;2023-03-14T07:01:58;6;4;
49778;PMS5003;36217;60.232;24.776;2023-03-14T07:04:24;6;6;
49778;PMS5003;36217;60.232;24.776;2023-03-14T07:06:52;4;4;
49778;PMS5003;36217;60.232;24.776;2023-03-14T07:09:19;7;4;
49778;PMS5003;36217;60.232;24.776;2023-03-14T07:12:01;3;3;
49778;PMS5003;36217;60.232;24.776;2023-03-14T07:14:29;7;4;
49778;PMS5003;36217;60.232;24.776;2023-03-14T07:16:56;4;4;
49778;PMS5003;36217;60.232;24.776;2023-03-14T07:19:23;4;4;
49778;PMS5003;36217;60.232;24.776;2023-03-14T07:21:50;6;4;
49778;PMS5003;36217;60.232;24.776;2023-03-14T07:24:17;6;4;
49778;PMS5003;36217;60.232;24.776;2023-03-14T07:26:44;7;4;
49778;PMS5003;36217;60.232;24.776;2023-03-14T07:29:12;4;3;
49778;PMS5003;36217;60.232;24.776;2023-03-14T07:31:39;7;3;
49778;PMS5003;36217;60.232;24.776;2023-03-14T07:34:06;13;7;
49778;PMS5003;36217;60.232;24.776;2023-03-14T07:36:33;4;3;
49778;PMS5003;36217;60.232;24.776;2023-03-14T07:39:00;8;6;
49778;PMS5003;36217;60.232;24.776;2023-03-14T07:41:27;13;6;
49778;PMS5003;36217;60.232;24.776;2023-03-14T07:43:55;7;7;
49778;PMS5003;36217;60.232;24.776;2023-03-14T07:46:41;3;3;
49778;PMS5003;36217;60.232;24.776;2023-03-14T07:49:08;9;7;
49778;PMS5003;36217;60.232;24.776;2023-03-14T07:51:36;4;4;
49778;PMS5003;36217;60.232;24.776;2023-03-14T07:54:03;8;7;
49778;PMS5003;36217;60.232;24.776;2023-03-14T07:56:30;9;8;
49778;PMS5003;36217;60.232;24.776;2023-03-14T07:58:57;9;9;
49778;PMS5003;36217;60.232;24.776;2023-03-14T08:01:24;6;6;
49778;PMS5003;36217;60.232;24.776;2023-03-14T08:03:51;9;6;
49778;PMS5003;36217;60.232;24.776;2023-03-14T08:06:18;8;6;
49778;PMS5003;36217;60.232;24.776;2023-03-14T08:08:45;7;7;
49778;PMS5003;36217;60.232;24.776;2023-03-14T08:11:12;8;7;
49778;PMS5003;36217;60.232;24.776;2023-03-14T08:13:39;10;8;
49778;PMS5003;36217;60.232;24.776;2023-03-14T08:16:07;8;6;
49778;PMS5003;36217;60.232;24.776;2023-03-14T08:18:34;9;7;
49778;PMS5003;36217;60.232;24.776;2023-03-14T08:21:01;5;5;
49778;PMS5003;36217;60.232;24.776;2023-03-14T08:23:28;4;2;
49778;PMS5003;36217;60.232;24.776;2023-03-14T08:25:56;10;8;
49778;PMS5003;36217;60.232;24.776;2023-03-14T08:28:23;9;7;
49778;PMS5003;36217;60.232;24.776;2023-03-14T08:30:55;4;3;
49778;PMS5003;36217;60.232;24.776;2023-03-14T08:33:22;7;7;
49778;PMS5003;36217;60.232;24.776;2023-03-14T08:35:51;5;4;
49778;PMS5003;36217;60.232;24.776;2023-03-14T08:38:18;9;7;
49778;PMS5003;36217;60.232;24.776;2023-03-14T08:40:54;14;8;
49778;PMS5003;36217;60.232;24.776;2023-03-14T08:43:22;7;7;
49778;PMS5003;36217;60.232;24.776;2023-03-14T08:45:49;13;7;
49778;PMS5003;36217;60.232;24.776;2023-03-14T08:48:16;8;7;
49778;PMS5003;36217;60.232;24.776;2023-03-14T08:50:43;16;9;
49778;PMS5003;36217;60.232;24.776;2023-03-14T08:53:10;5;5;
49778;PMS5003;36217;60.232;24.776;2023-03-14T08:55:37;14;9;
49778;PMS5003;36217;60.232;24.776;2023-03-14T08:58:04;9;5;
49778;PMS5003;36217;60.232;24.776;2023-03-14T09:00:31;9;8;
49778;PMS5003;36217;60.232;24.776;2023-03-14T09:02:58;5;4;
49778;PMS5003;36217;60.232;24.776;2023-03-14T09:05:25;9;8;
49778;PMS5003;36217;60.232;24.776;2023-03-14T09:07:52;7;4;
49778;PMS5003;36217;60.232;24.776;2023-03-14T09:10:19;10;8;
49778;PMS5003;36217;60.232;24.776;2023-03-14T09:12:46;7;4;
49778;PMS5003;36217;60.232;24.776;2023-03-14T09:15:13;10;7;
49778;PMS5003;36217;60.232;24.776;2023-03-14T09:17:42;10;7;
49778;PMS5003;36217;60.232;24.776;2023-03-14T09:20:09;9;7;
49778;PMS5003;36217;60.232;24.776;2023-03-14T09:22:37;7;7;
49778;PMS5003;36217;60.232;24.776;2023-03-14T09:25:10;8;4;
49778;PMS5003;36217;60.232;24.776;2023-03-14T09:27:37;7;7;
49778;PMS5003;36217;60.232;24.776;2023-03-14T09:30:04;11;8;
49778;PMS5003;36217;60.232;24.776;2023-03-14T09:32:31;10;8;
49778;PMS5003;36217;60.232;24.776;2023-03-14T09:34:58;10;5;
49778;PMS5003;36217;60.232;24.776;2023-03-14T09:37:26;5;5;
49778;PMS5003;36217;60.232;24.776;2023-03-14T09:39:53;5;5;
49778;PMS5003;36217;60.232;24.776;2023-03-14T09:42:20;4;4;
49778;PMS5003;36217;60.232;24.776;2023-03-14T09:44:52;10;5;
49778;PMS5003;36217;60.232;24.776;2023-03-14T09:47:21;8;7;
49778;PMS5003;36217;60.232;24.776;2023-03-14T09:49:50;7;7;
49778;PMS5003;36217;60.232;24.776;2023-03-14T09:52:19;7;5;
49778;PMS5003;36217;60.232;24.776;2023-03-14T09:55:02;7;5;
49778;PMS5003;36217;60.232;24.776;2023-03-14T09:57:32;7;5;
49778;PMS5003;36217;60.232;24.776;2023-03-14T10:00:03;5;5;
49778;PMS5003;36217;60.232;24.776;2023-03-14T10:02:34;5;4;
49778;PMS5003;36217;60.232;24.776;2023-03-14T10:05:05;16;9;
49778;PMS5003;36217;60.232;24.776;2023-03-14T10:07:38;5;5;
49778;PMS5003;36217;60.232;24.776;2023-03-14T10:10:08;7;5;
49778;PMS5003;36217;60.232;24.776;2023-03-14T10:12:40;5;3;
49778;PMS5003;36217;60.232;24.776;2023-03-14T10:15:07;8;5;
49778;PMS5003;36217;60.232;24.776;2023-03-14T10:17:38;3;3;
49778;PMS5003;36217;60.232;24.776;2023-03-14T10:20:15;7;5;
49778;PMS5003;36217;60.232;24.776;2023-03-14T10:22:53;5;5;
49778;PMS5003;36217;60.232;24.776;2023-03-14T10:25:25;4;4;
49778;PMS5003;36217;60.232;24.776;2023-03-14T10:27:54;8;5;
49778;PMS5003;36217;60.232;24.776;2023-03-14T10:30:30;7;4;
49778;PMS5003;36217;60.232;24.776;2023-03-14T10:33:10;5;3;
49778;PMS5003;36217;60.232;24.776;2023-03-14T10:35:38;5;3;
49778;PMS5003;36217;60.232;24.776;2023-03-14T10:38:10;2;2;
49778;PMS5003;36217;60.232;24.776;2023-03-14T10:40:40;10;4;
49778;PMS5003;36217;60.232;24.776;2023-03-14T10:43:13;2;2;
49778;PMS5003;36217;60.232;24.776;2023-03-14T10:45:43;7;5;
49778;PMS5003;36217;60.232;24.776;2023-03-14T10:48:31;7;5;
49778;PMS5003;36217;60.232;24.776;2023-03-14T10:51:04;7;3;
49778;PMS5003;36217;60.232;24.776;2023-03-14T10:53:33;4;4;
49778;PMS5003;36217;60.232;24.776;2023-03-14T10:56:06;7;4;
49778;PMS5003;36217;60.232;24.776;2023-03-14T10:58:37;7;5;
49778;PMS5003;36217;60.232;24.776;2023-03-14T11:01:11;4;3;
49778;PMS5003;36217;60.232;24.776;2023-03-14T11:03:53;3;3;
49778;PMS5003;36217;60.232;24.776;2023-03-14T11:06:24;5;5;
49778;PMS5003;36217;60.232;24.776;2023-03-14T11:09:02;7;5;
49778;PMS5003;36217;60.232;24.776;2023-03-14T11:11:36;4;2;
49778;PMS5003;36217;60.232;24.776;2023-03-14T11:14:12;4;4;
49778;PMS5003;36217;60.232;24.776;2023-03-14T11:16:51;5;4;
49778;PMS5003;36217;60.232;24.776;2023-03-14T11:19:27;8;5;
49778;PMS5003;36217;60.232;24.776;2023-03-14T11:22:05;11;7;
49778;PMS5003;36217;60.232;24.776;2023-03-14T11:24:44;8;7;
49778;PMS5003;36217;60.232;24.776;2023-03-14T11:27:23;9;8;
49778;PMS5003;36217;60.232;24.776;2023-03-14T11:29:57;7;4;
49778;PMS5003;36217;60.232;24.776;2023-03-14T11:32:36;7;5;
49778;PMS5003;36217;60.232;24.776;2023-03-14T11:35:14;5;3;
49778;PMS5003;36217;60.232;24.776;2023-03-14T11:37:47;8;4;
49778;PMS5003;36217;60.232;24.776;2023-03-14T11:40:19;10;10;
49778;PMS5003;36217;60.232;24.776;2023-03-14T11:42:51;8;7;
49778;PMS5003;36217;60.232;24.776;2023-03-14T11:45:27;10;9;
49778;PMS5003;36217;60.232;24.776;2023-03-14T11:48:05;3;3;
49778;PMS5003;36217;60.232;24.776;2023-03-14T11:50:42;8;8;
49778;PMS5003;36217;60.232;24.776;2023-03-14T11:53:12;7;4;
49778;PMS5003;36217;60.232;24.776;2023-03-14T11:55:43;9;7;
49778;PMS5003;36217;60.232;24.776;2023-03-14T11:58:12;14;9;
49778;PMS5003;36217;60.232;24.776;2023-03-14T12:00:43;5;4;
49778;PMS5003;36217;60.232;24.776;2023-03-14T12:03:14;4;4;
49778;PMS5003;36217;60.232;24.776;2023-03-14T12:05:50;4;4;
49778;PMS5003;36217;60.232;24.776;2023-03-14T12:08:37;5;5;
49778;PMS5003;36217;60.232;24.776;2023-03-14T12:11:10;12;7;
49778;PMS5003;36217;60.232;24.776;2023-03-14T12:13:41;5;4;
49778;PMS5003;36217;60.232;24.776;2023-03-14T12:16:20;8;8;
49778;PMS5003;36217;60.232;24.776;2023-03-14T12:18:57;7;5;
49778;PMS5003;36217;60.232;24.776;2023-03-14T12:21:44;7;4;
49778;PMS5003;36217;60.232;24.776;2023-03-14T12:24:17;5;5;
49778;PMS5003;36217;60.232;24.776;2023-03-14T12:26:49;9;5;
49778;PMS5003;36217;60.232;24.776;2023-03-14T12:29:19;8;5;
49778;PMS5003;36217;60.232;24.776;2023-03-14T12:31:47;9;4;
49778;PMS5003;36217;60.232;24.776;2023-03-14T12:34:31;8;4;
49778;PMS5003;36217;60.232;24.776;2023-03-14T12:37:05;8;4;
49778;PMS5003;36217;60.232;24.776;2023-03-14T12:39:44;9;7;
49778;PMS5003;36217;60.232;24.776;2023-03-14T12:42:21;5;5;
49778;PMS5003;36217;60.232;24.776;2023-03-14T12:45:13;7;5;
49778;PMS5003;36217;60.232;24.776;2023-03-14T12:47:51;8;4;
49778;PMS5003;36217;60.232;24.776;2023-03-14T12:50:25;8;5;
49778;PMS5003;36217;60.232;24.776;2023-03-14T12:53:01;7;5;
49778;PMS5003;36217;60.232;24.776;2023-03-14T12:55:41;4;4;
49778;PMS5003;36217;60.232;24.776;2023-03-14T12:58:14;8;3;
49778;PMS5003;36217;60.232;24.776;2023-03-14T13:01:27;7;4;
49778;PMS5003;36217;60.232;24.776;2023-03-14T13:03:55;11;7;
49778;PMS5003;36217;60.232;24.776;2023-03-14T13:06:56;7;3;
49778;PMS5003;36217;60.232;24.776;2023-03-14T13:10:00;8;3;
49778;PMS5003;36217;60.232;24.776;2023-03-14T13:12:44;8;5;
49778;PMS5003;36217;60.232;24.776;2023-03-14T13:15:17;10;8;
49778;PMS5003;36217;60.232;24.776;2023-03-14T13:17:48;11;3;
49778;PMS5003;36217;60.232;24.776;2023-03-14T13:20:19;5;4;
49778;PMS5003;36217;60.232;24.776;2023-03-14T13:22:51;8;5;
49778;PMS5003;36217;60.232;24.776;2023-03-14T13:25:18;5;3;
49778;PMS5003;36217;60.232;24.776;2023-03-14T13:27:45;4;4;
49778;PMS5003;36217;60.232;24.776;2023-03-14T13:30:15;3;3;
49778;PMS5003;36217;60.232;24.776;2023-03-14T13:32:46;9;9;
49778;PMS5003;36217;60.232;24.776;2023-03-14T13:35:15;4;4;
49778;PMS5003;36217;60.232;24.776;2023-03-14T13:37:45;5;5;
49778;PMS5003;36217;60.232;24.776;2023-03-14T13:40:21;7;5;
49778;PMS5003;36217;60.232;24.776;2023-03-14T13:43:01;8;8;
49778;PMS5003;36217;60.232;24.776;2023-03-14T13:45:31;4;2;
49778;PMS5003;36217;60.232;24.776;2023-03-14T13:48:08;7;5;
49778;PMS5003;36217;60.232;24.776;2023-03-14T13:50:36;8;7;
49778;PMS5003;36217;60.232;24.776;2023-03-14T13:53:03;5;4;
49778;PMS5003;36217;60.232;24.776;2023-03-14T13:55:30;9;9;
49778;PMS5003;36217;60.232;24.776;2023-03-14T13:57:56;26;23;
49778;PMS5003;36217;60.232;24.776;2023-03-14T14:00:24;11;10;
49778;PMS5003;36217;60.232;24.776;2023-03-14T14:02:53;9;7;
49778;PMS5003;36217;60.232;24.776;2023-03-14T14:05:21;13;11;
49778;PMS5003;36217;60.232;24.776;2023-03-14T14:07:49;7;7;
49778;PMS5003;36217;60.232;24.776;2023-03-14T14:10:16;10;7;
49778;PMS5003;36217;60.232;24.776;2023-03-14T14:12:46;9;7;
49778;PMS5003;36217;60.232;24.776;2023-03-14T14:15:15;8;8;
49778;PMS5003;36217;60.232;24.776;2023-03-14T14:17:45;15;10;
49778;PMS5003;36217;60.232;24.776;2023-03-14T14:20:20;7;7;
49778;PMS5003;36217;60.232;24.776;2023-03-14T14:22:50;7;7;
49778;PMS5003;36217;60.232;24.776;2023-03-14T14:25:18;10;9;
49778;PMS5003;36217;60.232;24.776;2023-03-14T14:27:47;7;7;
49778;PMS5003;36217;60.232;24.776;2023-03-14T14:30:32;8;8;
49778;PMS5003;36217;60.232;24.776;2023-03-14T14:34:04;4;4;
49778;PMS5003;36217;60.232;24.776;2023-03-14T14:36:32;8;5;
49778;PMS5003;36217;60.232;24.776;2023-03-14T14:39:05;5;5;
49778;PMS5003;36217;60.232;24.776;2023-03-14T14:41:47;7;4;
49778;PMS5003;36217;60.232;24.776;2023-03-14T14:44:17;5;5;
49778;PMS5003;36217;60.232;24.776;2023-03-14T14:46:47;8;7;
49778;PMS5003;36217;60.232;24.776;2023-03-14T14:49:15;5;4;
49778;PMS5003;36217;60.232;24.776;2023-03-14T14:51:47;5;4;
49778;PMS5003;36217;60.232;24.776;2023-03-14T14:54:16;10;4;
49778;PMS5003;36217;60.232;24.776;2023-03-14T14:56:46;8;5;
49778;PMS5003;36217;60.232;24.776;2023-03-14T14:59:23;4;4;
49778;PMS5003;36217;60.232;24.776;2023-03-14T15:01:55;8;8;
49778;PMS5003;36217;60.232;24.776;2023-03-14T15:04:23;5;5;
49778;PMS5003;36217;60.232;24.776;2023-03-14T15:06:51;5;5;
49778;PMS5003;36217;60.232;24.776;2023-03-14T15:09:19;10;8;
49778;PMS5003;36217;60.232;24.776;2023-03-14T15:11:47;9;7;
49778;PMS5003;36217;60.232;24.776;2023-03-14T15:14:14;4;4;
49778;PMS5003;36217;60.232;24.776;2023-03-14T15:16:41;8;5;
49778;PMS5003;36217;60.232;24.776;2023-03-14T15:19:10;8;8;
49778;PMS5003;36217;60.232;24.776;2023-03-14T15:21:41;5;5;
49778;PMS5003;36217;60.232;24.776;2023-03-14T15:24:09;5;4;
49778;PMS5003;36217;60.232;24.776;2023-03-14T15:26:36;9;8;
49778;PMS5003;36217;60.232;24.776;2023-03-14T15:29:03;7;4;
49778;PMS5003;36217;60.232;24.776;2023-03-14T15:31:31;5;5;
49778;PMS5003;36217;60.232;24.776;2023-03-14T15:33:58;7;7;
49778;PMS5003;36217;60.232;24.776;2023-03-14T15:36:26;9;4;
49778;PMS5003;36217;60.232;24.776;2023-03-14T15:38:55;7;7;
49778;PMS5003;36217;60.232;24.776;2023-03-14T15:41:23;8;7;
49778;PMS5003;36217;60.232;24.776;2023-03-14T15:43:50;5;5;
49778;PMS5003;36217;60.232;24.776;2023-03-14T15:46:18;11;7;
49778;PMS5003;36217;60.232;24.776;2023-03-14T15:48:45;8;7;
49778;PMS5003;36217;60.232;24.776;2023-03-14T15:51:13;7;7;
49778;PMS5003;36217;60.232;24.776;2023-03-14T15:53:40;7;7;
49778;PMS5003;36217;60.232;24.776;2023-03-14T15:56:09;9;7;
49778;PMS5003;36217;60.232;24.776;2023-03-14T15:58:38;9;8;
49778;PMS5003;36217;60.232;24.776;2023-03-14T16:01:06;8;8;
49778;PMS5003;36217;60.232;24.776;2023-03-14T16:03:34;5;5;
49778;PMS5003;36217;60.232;24.776;2023-03-14T16:06:01;9;7;
49778;PMS5003;36217;60.232;24.776;2023-03-14T16:08:28;7;5;
49778;PMS5003;36217;60.232;24.776;2023-03-14T16:10:56;7;7;
49778;PMS5003;36217;60.232;24.776;2023-03-14T16:13:25;7;7;
49778;PMS5003;36217;60.232;24.776;2023-03-14T16:15:52;9;8;
49778;PMS5003;36217;60.232;24.776;2023-03-14T16:18:31;10;8;
49778;PMS5003;36217;60.232;24.776;2023-03-14T16:21:00;10;8;
49778;PMS5003;36217;60.232;24.776;2023-03-14T16:23:29;10;8;
49778;PMS5003;36217;60.232;24.776;2023-03-14T16:25:56;9;8;
49778;PMS5003;36217;60.232;24.776;2023-03-14T16:28:24;10;10;
49778;PMS5003;36217;60.232;24.776;2023-03-14T16:30:51;16;9;
49778;PMS5003;36217;60.232;24.776;2023-03-14T16:33:18;10;10;
49778;PMS5003;36217;60.232;24.776;2023-03-14T16:35:53;13;8;
49778;PMS5003;36217;60.232;24.776;2023-03-14T16:38:21;8;8;
49778;PMS5003;36217;60.232;24.776;2023-03-14T16:40:54;9;7;
49778;PMS5003;36217;60.232;24.776;2023-03-14T16:43:22;13;11;
49778;PMS5003;36217;60.232;24.776;2023-03-14T16:45:49;8;8;
49778;PMS5003;36217;60.232;24.776;2023-03-14T16:48:17;11;11;